sensor_id;sensor_type;location;lat;lon;timestamp;P1;durP1;ratioP1;P2;durP2;ratioP2
7917;SDS011;4004;42.624;23.386;2024-03-07T00:00:18;17.60;;;13.87;;
7917;SDS011;4004;42.624;23.386;2024-03-07T00:02:47;16.57;;;14.23;;
7917;SDS011;4004;42.624;23.386;2024-03-07T00:05:15;18.73;;;16.57;;
7917;SDS011;4004;42.624;23.386;2024-03-07T00:07:42;15.00;;;13.50;;
7917;SDS011;4004;42.624;23.386;2024-03-07T00:10:10;16.43;;;13.77;;
7917;SDS011;4004;42.624;23.386;2024-03-07T00:12:37;16.40;;;14.70;;
7917;SDS011;4004;42.624;23.386;2024-03-07T00:15:06;17.73;;;15.30;;
7917;SDS011;4004;42.624;23.386;2024-03-07T00:17:35;17.73;;;15.83;;
7917;SDS011;4004;42.624;23.386;2024-03-07T00:20:02;16.20;;;14.57;;
7917;SDS011;4004;42.624;23.386;2024-03-07T00:22:33;16.57;;;14.90;;
7917;SDS011;4004;42.624;23.386;2024-03-07T00:25:01;16.47;;;14.77;;
7917;SDS011;4004;42.624;23.386;2024-03-07T00:27:30;15.10;;;13.53;;
7917;SDS011;4004;42.624;23.386;2024-03-07T00:29:57;17.80;;;16.00;;
7917;SDS011;4004;42.624;23.386;2024-03-07T00:32:24;18.37;;;15.03;;
7917;SDS011;4004;42.624;23.386;2024-03-07T00:34:54;16.03;;;14.27;;
7917;SDS011;4004;42.624;23.386;2024-03-07T00:37:22;15.80;;;14.10;;
7917;SDS011;4004;42.624;23.386;2024-03-07T00:39:50;17.23;;;15.43;;
7917;SDS011;4004;42.624;23.386;2024-03-07T00:42:16;15.93;;;14.30;;
7917;SDS011;4004;42.624;23.386;2024-03-07T00:44:43;17.47;;;15.30;;
7917;SDS011;4004;42.624;23.386;2024-03-07T00:47:10;18.83;;;16.30;;
7917;SDS011;4004;42.624;23.386;2024-03-07T00:49:37;17.90;;;16.00;;
7917;SDS011;4004;42.624;23.386;2024-03-07T00:52:06;18.23;;;16.23;;
7917;SDS011;4004;42.624;23.386;2024-03-07T00:54:33;19.67;;;16.87;;
7917;SDS011;4004;42.624;23.386;2024-03-07T00:57:00;18.10;;;16.20;;
7917;SDS011;4004;42.624;23.386;2024-03-07T00:59:27;18.03;;;16.10;;
7917;SDS011;4004;42.624;23.386;2024-03-07T01:01:54;17.57;;;15.77;;
7917;SDS011;4004;42.624;23.386;2024-03-07T01:04:21;17.77;;;15.97;;
7917;SDS011;4004;42.624;23.386;2024-03-07T01:06:48;18.07;;;16.10;;
7917;SDS011;4004;42.624;23.386;2024-03-07T01:09:16;19.13;;;15.97;;
7917;SDS011;4004;42.624;23.386;2024-03-07T01:11:44;19.53;;;16.33;;
7917;SDS011;4004;42.624;23.386;2024-03-07T01:14:11;18.07;;;15.63;;
7917;SDS011;4004;42.624;23.386;2024-03-07T01:16:38;17.17;;;15.37;;
7917;SDS011;4004;42.624;23.386;2024-03-07T01:19:05;17.43;;;15.17;;
7917;SDS011;4004;42.624;23.386;2024-03-07T01:21:32;20.50;;;15.40;;
7917;SDS011;4004;42.624;23.386;2024-03-07T01:24:01;16.17;;;14.33;;
7917;SDS011;4004;42.624;23.386;2024-03-07T01:26:30;18.87;;;13.67;;
7917;SDS011;4004;42.624;23.386;2024-03-07T01:28:58;15.23;;;13.63;;
7917;SDS011;4004;42.624;23.386;2024-03-07T01:31:25;14.37;;;12.97;;
7917;SDS011;4004;42.624;23.386;2024-03-07T01:33:53;15.23;;;13.70;;
7917;SDS011;4004;42.624;23.386;2024-03-07T01:36:20;15.03;;;13.00;;
7917;SDS011;4004;42.624;23.386;2024-03-07T01:38:47;16.33;;;13.23;;
7917;SDS011;4004;42.624;23.386;2024-03-07T01:41:14;15.60;;;14.00;;
7917;SDS011;4004;42.624;23.386;2024-03-07T01:43:42;13.90;;;12.20;;
7917;SDS011;4004;42.624;23.386;2024-03-07T01:46:10;14.40;;;12.80;;
7917;SDS011;4004;42.624;23.386;2024-03-07T01:48:37;14.23;;;12.80;;
7917;SDS011;4004;42.624;23.386;2024-03-07T01:51:05;14.30;;;12.83;;
7917;SDS011;4004;42.624;23.386;2024-03-07T01:53:33;13.23;;;11.83;;
7917;SDS011;4004;42.624;23.386;2024-03-07T01:56:01;11.47;;;10.33;;
7917;SDS011;4004;42.624;23.386;2024-03-07T01:58:30;9.70;;;8.73;;
7917;SDS011;4004;42.624;23.386;2024-03-07T02:00:59;6.97;;;6.27;;
7917;SDS011;4004;42.624;23.386;2024-03-07T02:03:26;3.60;;;3.30;;
7917;SDS011;4004;42.624;23.386;2024-03-07T02:05:53;3.03;;;2.77;;
7917;SDS011;4004;42.624;23.386;2024-03-07T02:08:20;2.50;;;2.27;;
7917;SDS011;4004;42.624;23.386;2024-03-07T02:10:46;2.57;;;2.37;;
7917;SDS011;4004;42.624;23.386;2024-03-07T02:13:14;2.30;;;2.10;;
7917;SDS011;4004;42.624;23.386;2024-03-07T02:15:41;2.17;;;1.97;;
7917;SDS011;4004;42.624;23.386;2024-03-07T02:18:10;2.20;;;2.00;;
7917;SDS011;4004;42.624;23.386;2024-03-07T02:20:37;1.80;;;1.70;;
7917;SDS011;4004;42.624;23.386;2024-03-07T02:23:05;1.90;;;1.70;;
7917;SDS011;4004;42.624;23.386;2024-03-07T02:25:32;2.13;;;1.53;;
7917;SDS011;4004;42.624;23.386;2024-03-07T02:28:03;1.60;;;1.50;;
7917;SDS011;4004;42.624;23.386;2024-03-07T02:30:30;1.67;;;1.53;;
7917;SDS011;4004;42.624;23.386;2024-03-07T02:32:58;2.93;;;1.30;;
7917;SDS011;4004;42.624;23.386;2024-03-07T02:35:31;1.47;;;1.37;;
7917;SDS011;4004;42.624;23.386;2024-03-07T02:37:59;1.60;;;1.50;;
7917;SDS011;4004;42.624;23.386;2024-03-07T02:40:28;1.30;;;1.20;;
7917;SDS011;4004;42.624;23.386;2024-03-07T02:42:55;2.40;;;1.40;;
7917;SDS011;4004;42.624;23.386;2024-03-07T02:45:22;1.77;;;1.20;;
7917;SDS011;4004;42.624;23.386;2024-03-07T02:47:50;1.33;;;1.23;;
7917;SDS011;4004;42.624;23.386;2024-03-07T02:50:18;1.33;;;1.23;;
7917;SDS011;4004;42.624;23.386;2024-03-07T02:52:46;1.50;;;1.13;;
7917;SDS011;4004;42.624;23.386;2024-03-07T02:55:13;1.20;;;1.10;;
7917;SDS011;4004;42.624;23.386;2024-03-07T02:57:42;1.30;;;1.13;;
7917;SDS011;4004;42.624;23.386;2024-03-07T03:00:09;1.23;;;1.00;;
7917;SDS011;4004;42.624;23.386;2024-03-07T03:02:45;1.00;;;0.90;;
7917;SDS011;4004;42.624;23.386;2024-03-07T03:05:13;1.00;;;0.80;;
7917;SDS011;4004;42.624;23.386;2024-03-07T03:07:40;1.10;;;1.00;;
7917;SDS011;4004;42.624;23.386;2024-03-07T03:10:07;1.40;;;1.00;;
7917;SDS011;4004;42.624;23.386;2024-03-07T03:12:36;2.83;;;1.13;;
7917;SDS011;4004;42.624;23.386;2024-03-07T03:15:06;1.27;;;0.70;;
7917;SDS011;4004;42.624;23.386;2024-03-07T03:17:35;1.13;;;0.90;;
7917;SDS011;4004;42.624;23.386;2024-03-07T03:20:02;0.83;;;0.80;;
7917;SDS011;4004;42.624;23.386;2024-03-07T03:22:35;0.73;;;0.73;;
7917;SDS011;4004;42.624;23.386;2024-03-07T03:25:02;2.17;;;0.80;;
7917;SDS011;4004;42.624;23.386;2024-03-07T03:27:29;1.37;;;1.00;;
7917;SDS011;4004;42.624;23.386;2024-03-07T03:29:57;1.20;;;1.00;;
7917;SDS011;4004;42.624;23.386;2024-03-07T03:32:26;1.23;;;0.90;;
7917;SDS011;4004;42.624;23.386;2024-03-07T03:34:54;1.20;;;1.10;;
7917;SDS011;4004;42.624;23.386;2024-03-07T03:37:21;1.03;;;0.90;;
7917;SDS011;4004;42.624;23.386;2024-03-07T03:39:48;0.70;;;0.70;;
7917;SDS011;4004;42.624;23.386;2024-03-07T03:42:15;1.00;;;0.90;;
7917;SDS011;4004;42.624;23.386;2024-03-07T03:44:42;0.70;;;0.70;;
7917;SDS011;4004;42.624;23.386;2024-03-07T03:47:09;0.90;;;0.90;;
7917;SDS011;4004;42.624;23.386;2024-03-07T03:49:37;0.80;;;0.80;;
7917;SDS011;4004;42.624;23.386;2024-03-07T03:52:04;0.70;;;0.70;;
7917;SDS011;4004;42.624;23.386;2024-03-07T03:54:31;1.23;;;0.70;;
7917;SDS011;4004;42.624;23.386;2024-03-07T03:56:58;0.90;;;0.90;;
7917;SDS011;4004;42.624;23.386;2024-03-07T03:59:25;2.97;;;0.80;;
7917;SDS011;4004;42.624;23.386;2024-03-07T04:01:52;1.10;;;0.90;;
7917;SDS011;4004;42.624;23.386;2024-03-07T04:04:19;0.87;;;0.87;;
7917;SDS011;4004;42.624;23.386;2024-03-07T04:06:47;1.40;;;1.07;;
7917;SDS011;4004;42.624;23.386;2024-03-07T04:09:14;1.10;;;1.00;;
7917;SDS011;4004;42.624;23.386;2024-03-07T04:11:41;0.77;;;0.77;;
7917;SDS011;4004;42.624;23.386;2024-03-07T04:14:11;1.30;;;0.90;;
7917;SDS011;4004;42.624;23.386;2024-03-07T04:16:38;1.00;;;0.90;;
7917;SDS011;4004;42.624;23.386;2024-03-07T04:19:05;0.80;;;0.80;;
7917;SDS011;4004;42.624;23.386;2024-03-07T04:21:34;1.47;;;1.20;;
7917;SDS011;4004;42.624;23.386;2024-03-07T04:24:03;1.20;;;1.00;;
7917;SDS011;4004;42.624;23.386;2024-03-07T04:26:30;1.20;;;1.10;;
7917;SDS011;4004;42.624;23.386;2024-03-07T04:28:57;1.47;;;1.07;;
7917;SDS011;4004;42.624;23.386;2024-03-07T04:31:24;1.87;;;1.23;;
7917;SDS011;4004;42.624;23.386;2024-03-07T04:33:51;1.67;;;1.30;;
7917;SDS011;4004;42.624;23.386;2024-03-07T04:36:18;1.27;;;1.17;;
7917;SDS011;4004;42.624;23.386;2024-03-07T04:38:45;1.23;;;1.13;;
7917;SDS011;4004;42.624;23.386;2024-03-07T04:41:13;1.40;;;1.30;;
7917;SDS011;4004;42.624;23.386;2024-03-07T04:43:41;1.47;;;1.37;;
7917;SDS011;4004;42.624;23.386;2024-03-07T04:46:08;1.27;;;1.17;;
7917;SDS011;4004;42.624;23.386;2024-03-07T04:48:35;1.63;;;1.40;;
7917;SDS011;4004;42.624;23.386;2024-03-07T04:51:03;1.40;;;1.30;;
7917;SDS011;4004;42.624;23.386;2024-03-07T04:53:30;1.73;;;1.50;;
7917;SDS011;4004;42.624;23.386;2024-03-07T04:55:57;2.90;;;1.60;;
7917;SDS011;4004;42.624;23.386;2024-03-07T04:58:25;1.57;;;1.20;;
7917;SDS011;4004;42.624;23.386;2024-03-07T05:00:52;2.03;;;1.20;;
7917;SDS011;4004;42.624;23.386;2024-03-07T05:03:19;2.40;;;1.50;;
7917;SDS011;4004;42.624;23.386;2024-03-07T05:05:46;1.53;;;1.43;;
7917;SDS011;4004;42.624;23.386;2024-03-07T05:08:13;1.50;;;1.40;;
7917;SDS011;4004;42.624;23.386;2024-03-07T05:10:39;2.33;;;1.63;;
7917;SDS011;4004;42.624;23.386;2024-03-07T05:13:07;1.83;;;1.57;;
7917;SDS011;4004;42.624;23.386;2024-03-07T05:15:35;2.47;;;1.40;;
7917;SDS011;4004;42.624;23.386;2024-03-07T05:18:02;1.70;;;1.60;;
7917;SDS011;4004;42.624;23.386;2024-03-07T05:20:29;3.67;;;1.90;;
7917;SDS011;4004;42.624;23.386;2024-03-07T05:22:56;2.70;;;1.93;;
7917;SDS011;4004;42.624;23.386;2024-03-07T05:25:24;3.10;;;2.50;;
7917;SDS011;4004;42.624;23.386;2024-03-07T05:27:51;2.80;;;2.27;;
7917;SDS011;4004;42.624;23.386;2024-03-07T05:30:19;2.00;;;1.57;;
7917;SDS011;4004;42.624;23.386;2024-03-07T05:32:49;2.10;;;1.63;;
7917;SDS011;4004;42.624;23.386;2024-03-07T05:35:16;3.07;;;1.60;;
7917;SDS011;4004;42.624;23.386;2024-03-07T05:37:43;3.60;;;2.73;;
7917;SDS011;4004;42.624;23.386;2024-03-07T05:40:12;2.83;;;2.43;;
7917;SDS011;4004;42.624;23.386;2024-03-07T05:42:39;2.63;;;1.70;;
7917;SDS011;4004;42.624;23.386;2024-03-07T05:45:07;2.20;;;1.90;;
7917;SDS011;4004;42.624;23.386;2024-03-07T05:47:34;8.33;;;4.23;;
7917;SDS011;4004;42.624;23.386;2024-03-07T05:50:02;2.00;;;1.80;;
7917;SDS011;4004;42.624;23.386;2024-03-07T05:52:32;2.10;;;1.70;;
7917;SDS011;4004;42.624;23.386;2024-03-07T05:54:59;1.63;;;1.50;;
7917;SDS011;4004;42.624;23.386;2024-03-07T05:57:26;1.60;;;1.50;;
7917;SDS011;4004;42.624;23.386;2024-03-07T05:59:53;1.40;;;1.30;;
7917;SDS011;4004;42.624;23.386;2024-03-07T06:02:21;1.43;;;1.33;;
7917;SDS011;4004;42.624;23.386;2024-03-07T06:04:48;1.57;;;1.47;;
7917;SDS011;4004;42.624;23.386;2024-03-07T06:07:17;1.90;;;1.03;;
7917;SDS011;4004;42.624;23.386;2024-03-07T06:09:43;1.43;;;1.30;;
7917;SDS011;4004;42.624;23.386;2024-03-07T06:12:10;2.40;;;1.77;;
7917;SDS011;4004;42.624;23.386;2024-03-07T06:14:38;1.40;;;1.30;;
7917;SDS011;4004;42.624;23.386;2024-03-07T06:17:05;2.17;;;1.43;;
7917;SDS011;4004;42.624;23.386;2024-03-07T06:19:31;1.97;;;1.73;;
7917;SDS011;4004;42.624;23.386;2024-03-07T06:21:58;3.30;;;2.53;;
7917;SDS011;4004;42.624;23.386;2024-03-07T06:24:27;2.57;;;2.10;;
7917;SDS011;4004;42.624;23.386;2024-03-07T06:26:55;2.90;;;2.70;;
7917;SDS011;4004;42.624;23.386;2024-03-07T06:29:28;3.33;;;2.70;;
7917;SDS011;4004;42.624;23.386;2024-03-07T06:31:55;3.20;;;2.90;;
7917;SDS011;4004;42.624;23.386;2024-03-07T06:34:23;6.53;;;2.90;;
7917;SDS011;4004;42.624;23.386;2024-03-07T06:36:50;2.67;;;2.20;;
7917;SDS011;4004;42.624;23.386;2024-03-07T06:39:17;2.90;;;2.50;;
7917;SDS011;4004;42.624;23.386;2024-03-07T06:41:48;2.43;;;2.10;;
7917;SDS011;4004;42.624;23.386;2024-03-07T06:44:15;2.83;;;2.63;;
7917;SDS011;4004;42.624;23.386;2024-03-07T06:46:42;3.90;;;3.23;;
7917;SDS011;4004;42.624;23.386;2024-03-07T06:49:11;5.60;;;2.70;;
7917;SDS011;4004;42.624;23.386;2024-03-07T06:51:38;2.90;;;2.50;;
7917;SDS011;4004;42.624;23.386;2024-03-07T06:54:04;3.00;;;2.33;;
7917;SDS011;4004;42.624;23.386;2024-03-07T06:56:31;3.53;;;1.93;;
7917;SDS011;4004;42.624;23.386;2024-03-07T06:59:00;2.03;;;1.70;;
7917;SDS011;4004;42.624;23.386;2024-03-07T07:01:29;2.80;;;1.47;;
7917;SDS011;4004;42.624;23.386;2024-03-07T07:03:56;1.37;;;1.20;;
7917;SDS011;4004;42.624;23.386;2024-03-07T07:06:23;1.13;;;1.03;;
7917;SDS011;4004;42.624;23.386;2024-03-07T07:08:51;4.90;;;1.90;;
7917;SDS011;4004;42.624;23.386;2024-03-07T07:11:18;3.00;;;1.60;;
7917;SDS011;4004;42.624;23.386;2024-03-07T07:13:45;4.93;;;2.13;;
7917;SDS011;4004;42.624;23.386;2024-03-07T07:16:13;1.80;;;1.60;;
7917;SDS011;4004;42.624;23.386;2024-03-07T07:18:44;1.60;;;1.50;;
7917;SDS011;4004;42.624;23.386;2024-03-07T07:21:10;2.47;;;1.87;;
7917;SDS011;4004;42.624;23.386;2024-03-07T07:23:40;5.57;;;3.53;;
7917;SDS011;4004;42.624;23.386;2024-03-07T07:26:07;2.30;;;2.10;;
7917;SDS011;4004;42.624;23.386;2024-03-07T07:28:34;1.70;;;1.50;;
7917;SDS011;4004;42.624;23.386;2024-03-07T07:31:02;3.27;;;2.20;;
7917;SDS011;4004;42.624;23.386;2024-03-07T07:33:31;2.40;;;2.20;;
7917;SDS011;4004;42.624;23.386;2024-03-07T07:35:58;3.57;;;2.30;;
7917;SDS011;4004;42.624;23.386;2024-03-07T07:38:25;2.27;;;2.07;;
7917;SDS011;4004;42.624;23.386;2024-03-07T07:40:52;3.60;;;2.57;;
7917;SDS011;4004;42.624;23.386;2024-03-07T07:43:19;4.83;;;3.20;;
7917;SDS011;4004;42.624;23.386;2024-03-07T07:45:46;3.03;;;2.57;;
7917;SDS011;4004;42.624;23.386;2024-03-07T07:48:13;2.10;;;1.90;;
7917;SDS011;4004;42.624;23.386;2024-03-07T07:50:42;4.07;;;1.60;;
7917;SDS011;4004;42.624;23.386;2024-03-07T07:53:08;1.40;;;1.30;;
7917;SDS011;4004;42.624;23.386;2024-03-07T07:55:35;1.97;;;1.77;;
7917;SDS011;4004;42.624;23.386;2024-03-07T07:58:03;2.83;;;2.27;;
7917;SDS011;4004;42.624;23.386;2024-03-07T08:00:30;2.37;;;1.93;;
7917;SDS011;4004;42.624;23.386;2024-03-07T08:02:58;4.10;;;3.70;;
7917;SDS011;4004;42.624;23.386;2024-03-07T08:05:26;4.63;;;3.87;;
7917;SDS011;4004;42.624;23.386;2024-03-07T08:07:56;3.57;;;2.77;;
7917;SDS011;4004;42.624;23.386;2024-03-07T08:10:25;3.30;;;3.00;;
7917;SDS011;4004;42.624;23.386;2024-03-07T08:12:54;4.23;;;3.03;;
7917;SDS011;4004;42.624;23.386;2024-03-07T08:15:21;3.87;;;3.40;;
7917;SDS011;4004;42.624;23.386;2024-03-07T08:17:47;2.80;;;2.30;;
7917;SDS011;4004;42.624;23.386;2024-03-07T08:20:16;4.73;;;2.50;;
7917;SDS011;4004;42.624;23.386;2024-03-07T08:22:46;3.27;;;2.57;;
7917;SDS011;4004;42.624;23.386;2024-03-07T08:25:18;3.10;;;2.57;;
7917;SDS011;4004;42.624;23.386;2024-03-07T08:27:47;2.80;;;2.60;;
7917;SDS011;4004;42.624;23.386;2024-03-07T08:30:15;3.73;;;2.90;;
7917;SDS011;4004;42.624;23.386;2024-03-07T08:32:43;2.60;;;2.40;;
7917;SDS011;4004;42.624;23.386;2024-03-07T08:35:11;2.63;;;2.43;;
7917;SDS011;4004;42.624;23.386;2024-03-07T08:37:38;3.57;;;2.63;;
7917;SDS011;4004;42.624;23.386;2024-03-07T08:40:06;2.40;;;2.20;;
7917;SDS011;4004;42.624;23.386;2024-03-07T08:42:36;2.50;;;2.30;;
7917;SDS011;4004;42.624;23.386;2024-03-07T08:45:04;3.87;;;2.07;;
7917;SDS011;4004;42.624;23.386;2024-03-07T08:47:31;3.33;;;1.90;;
7917;SDS011;4004;42.624;23.386;2024-03-07T08:49:59;2.87;;;2.13;;
7917;SDS011;4004;42.624;23.386;2024-03-07T08:52:26;1.77;;;1.67;;
7917;SDS011;4004;42.624;23.386;2024-03-07T08:54:53;1.47;;;1.37;;
7917;SDS011;4004;42.624;23.386;2024-03-07T08:57:20;1.50;;;1.40;;
7917;SDS011;4004;42.624;23.386;2024-03-07T08:59:49;1.77;;;1.67;;
7917;SDS011;4004;42.624;23.386;2024-03-07T09:02:15;1.67;;;1.43;;
7917;SDS011;4004;42.624;23.386;2024-03-07T09:04:42;1.70;;;1.60;;
7917;SDS011;4004;42.624;23.386;2024-03-07T09:07:09;1.77;;;1.67;;
7917;SDS011;4004;42.624;23.386;2024-03-07T09:09:38;2.70;;;1.90;;
7917;SDS011;4004;42.624;23.386;2024-03-07T09:12:05;4.60;;;2.33;;
7917;SDS011;4004;42.624;23.386;2024-03-07T09:14:32;2.33;;;2.13;;
7917;SDS011;4004;42.624;23.386;2024-03-07T09:17:02;2.97;;;2.50;;
7917;SDS011;4004;42.624;23.386;2024-03-07T09:19:29;2.43;;;2.20;;
7917;SDS011;4004;42.624;23.386;2024-03-07T09:21:56;2.57;;;2.37;;
7917;SDS011;4004;42.624;23.386;2024-03-07T09:24:23;3.03;;;2.30;;
7917;SDS011;4004;42.624;23.386;2024-03-07T09:26:50;3.27;;;2.40;;
7917;SDS011;4004;42.624;23.386;2024-03-07T09:29:21;3.10;;;2.03;;
7917;SDS011;4004;42.624;23.386;2024-03-07T09:31:48;2.07;;;1.80;;
7917;SDS011;4004;42.624;23.386;2024-03-07T09:34:18;2.83;;;2.13;;
7917;SDS011;4004;42.624;23.386;2024-03-07T09:36:46;2.13;;;1.93;;
7917;SDS011;4004;42.624;23.386;2024-03-07T09:39:14;2.77;;;2.20;;
7917;SDS011;4004;42.624;23.386;2024-03-07T09:41:40;2.60;;;2.40;;
7917;SDS011;4004;42.624;23.386;2024-03-07T09:44:07;3.23;;;2.93;;
7917;SDS011;4004;42.624;23.386;2024-03-07T09:46:36;6.93;;;3.33;;
7917;SDS011;4004;42.624;23.386;2024-03-07T09:49:04;3.83;;;2.83;;
7917;SDS011;4004;42.624;23.386;2024-03-07T09:51:35;6.03;;;2.70;;
7917;SDS011;4004;42.624;23.386;2024-03-07T09:54:02;4.70;;;3.20;;
7917;SDS011;4004;42.624;23.386;2024-03-07T09:56:30;4.53;;;3.00;;
7917;SDS011;4004;42.624;23.386;2024-03-07T09:59:01;3.90;;;3.43;;
7917;SDS011;4004;42.624;23.386;2024-03-07T10:01:31;7.67;;;4.50;;
7917;SDS011;4004;42.624;23.386;2024-03-07T10:04:01;7.30;;;3.50;;
7917;SDS011;4004;42.624;23.386;2024-03-07T10:06:38;4.43;;;3.23;;
7917;SDS011;4004;42.624;23.386;2024-03-07T10:09:05;3.97;;;3.10;;
7917;SDS011;4004;42.624;23.386;2024-03-07T10:11:33;5.73;;;2.87;;
7917;SDS011;4004;42.624;23.386;2024-03-07T10:14:00;2.87;;;2.53;;
7917;SDS011;4004;42.624;23.386;2024-03-07T10:16:28;5.17;;;3.00;;
7917;SDS011;4004;42.624;23.386;2024-03-07T10:18:55;4.77;;;3.20;;
7917;SDS011;4004;42.624;23.386;2024-03-07T10:21:22;3.17;;;2.87;;
7917;SDS011;4004;42.624;23.386;2024-03-07T10:23:51;6.63;;;3.20;;
7917;SDS011;4004;42.624;23.386;2024-03-07T10:26:32;6.33;;;3.50;;
7917;SDS011;4004;42.624;23.386;2024-03-07T10:29:00;3.97;;;3.60;;
7917;SDS011;4004;42.624;23.386;2024-03-07T10:31:27;3.47;;;3.17;;
7917;SDS011;4004;42.624;23.386;2024-03-07T10:33:57;3.73;;;3.43;;
7917;SDS011;4004;42.624;23.386;2024-03-07T10:36:25;4.13;;;3.20;;
7917;SDS011;4004;42.624;23.386;2024-03-07T10:38:55;3.50;;;3.10;;
7917;SDS011;4004;42.624;23.386;2024-03-07T10:41:22;3.10;;;2.77;;
7917;SDS011;4004;42.624;23.386;2024-03-07T10:43:56;3.63;;;2.63;;
7917;SDS011;4004;42.624;23.386;2024-03-07T10:46:24;4.17;;;3.27;;
7917;SDS011;4004;42.624;23.386;2024-03-07T10:48:53;2.50;;;2.30;;
7917;SDS011;4004;42.624;23.386;2024-03-07T10:51:24;3.37;;;2.80;;
7917;SDS011;4004;42.624;23.386;2024-03-07T10:53:59;4.37;;;2.80;;
7917;SDS011;4004;42.624;23.386;2024-03-07T10:56:40;5.00;;;2.40;;
7917;SDS011;4004;42.624;23.386;2024-03-07T10:59:16;2.80;;;2.50;;
7917;SDS011;4004;42.624;23.386;2024-03-07T11:01:45;4.27;;;2.73;;
7917;SDS011;4004;42.624;23.386;2024-03-07T11:04:18;3.17;;;2.87;;
7917;SDS011;4004;42.624;23.386;2024-03-07T11:06:47;3.07;;;2.60;;
7917;SDS011;4004;42.624;23.386;2024-03-07T11:09:16;2.40;;;2.20;;
7917;SDS011;4004;42.624;23.386;2024-03-07T11:11:49;3.50;;;2.67;;
7917;SDS011;4004;42.624;23.386;2024-03-07T11:14:16;2.97;;;2.67;;
7917;SDS011;4004;42.624;23.386;2024-03-07T11:16:44;2.80;;;2.30;;
7917;SDS011;4004;42.624;23.386;2024-03-07T11:19:25;3.83;;;2.50;;
7917;SDS011;4004;42.624;23.386;2024-03-07T11:21:54;3.20;;;2.47;;
7917;SDS011;4004;42.624;23.386;2024-03-07T11:24:26;4.50;;;4.10;;
7917;SDS011;4004;42.624;23.386;2024-03-07T11:26:55;3.73;;;3.43;;
7917;SDS011;4004;42.624;23.386;2024-03-07T11:32:12;5.13;;;4.03;;
7917;SDS011;4004;42.624;23.386;2024-03-07T11:34:40;4.87;;;4.30;;
7917;SDS011;4004;42.624;23.386;2024-03-07T11:37:07;5.43;;;4.53;;
7917;SDS011;4004;42.624;23.386;2024-03-07T11:39:44;5.87;;;4.40;;
7917;SDS011;4004;42.624;23.386;2024-03-07T11:42:19;6.37;;;4.30;;
7917;SDS011;4004;42.624;23.386;2024-03-07T11:44:50;4.53;;;4.10;;
7917;SDS011;4004;42.624;23.386;2024-03-07T11:47:21;4.30;;;3.90;;
7917;SDS011;4004;42.624;23.386;2024-03-07T11:49:49;5.27;;;4.20;;
7917;SDS011;4004;42.624;23.386;2024-03-07T11:52:17;5.27;;;4.23;;
7917;SDS011;4004;42.624;23.386;2024-03-07T11:54:46;4.67;;;4.03;;
7917;SDS011;4004;42.624;23.386;2024-03-07T11:57:14;4.27;;;3.30;;
7917;SDS011;4004;42.624;23.386;2024-03-07T11:59:42;3.70;;;3.33;;
7917;SDS011;4004;42.624;23.386;2024-03-07T12:02:11;4.23;;;3.10;;
7917;SDS011;4004;42.624;23.386;2024-03-07T12:04:40;3.70;;;2.43;;
7917;SDS011;4004;42.624;23.386;2024-03-07T12:07:07;2.40;;;2.20;;
7917;SDS011;4004;42.624;23.386;2024-03-07T12:09:36;2.30;;;2.10;;
7917;SDS011;4004;42.624;23.386;2024-03-07T12:12:05;2.63;;;1.83;;
7917;SDS011;4004;42.624;23.386;2024-03-07T12:14:33;6.40;;;2.30;;
7917;SDS011;4004;42.624;23.386;2024-03-07T12:17:00;4.00;;;2.43;;
7917;SDS011;4004;42.624;23.386;2024-03-07T12:19:29;2.40;;;2.20;;
7917;SDS011;4004;42.624;23.386;2024-03-07T12:21:59;3.57;;;2.50;;
7917;SDS011;4004;42.624;23.386;2024-03-07T12:24:26;2.83;;;2.47;;
7917;SDS011;4004;42.624;23.386;2024-03-07T12:27:05;2.50;;;2.30;;
7917;SDS011;4004;42.624;23.386;2024-03-07T12:29:34;3.37;;;2.60;;
7917;SDS011;4004;42.624;23.386;2024-03-07T12:32:03;4.07;;;2.67;;
7917;SDS011;4004;42.624;23.386;2024-03-07T12:34:31;2.77;;;2.33;;
7917;SDS011;4004;42.624;23.386;2024-03-07T12:37:01;3.53;;;2.33;;
7917;SDS011;4004;42.624;23.386;2024-03-07T12:39:31;12.17;;;3.40;;
7917;SDS011;4004;42.624;23.386;2024-03-07T12:42:01;9.77;;;3.10;;
7917;SDS011;4004;42.624;23.386;2024-03-07T12:44:40;3.90;;;2.67;;
7917;SDS011;4004;42.624;23.386;2024-03-07T12:47:09;5.43;;;2.90;;
7917;SDS011;4004;42.624;23.386;2024-03-07T12:49:36;4.30;;;2.47;;
7917;SDS011;4004;42.624;23.386;2024-03-07T12:52:04;4.87;;;3.13;;
7917;SDS011;4004;42.624;23.386;2024-03-07T12:54:33;7.40;;;3.00;;
7917;SDS011;4004;42.624;23.386;2024-03-07T12:57:02;3.70;;;2.97;;
7917;SDS011;4004;42.624;23.386;2024-03-07T12:59:30;5.07;;;2.90;;
7917;SDS011;4004;42.624;23.386;2024-03-07T13:01:59;3.93;;;2.67;;
7917;SDS011;4004;42.624;23.386;2024-03-07T13:04:26;7.30;;;2.97;;
7917;SDS011;4004;42.624;23.386;2024-03-07T13:06:54;2.83;;;2.60;;
7917;SDS011;4004;42.624;23.386;2024-03-07T13:09:24;7.10;;;2.40;;
7917;SDS011;4004;42.624;23.386;2024-03-07T13:11:53;4.23;;;2.37;;
7917;SDS011;4004;42.624;23.386;2024-03-07T13:14:20;3.53;;;2.57;;
7917;SDS011;4004;42.624;23.386;2024-03-07T13:16:47;3.43;;;2.80;;
7917;SDS011;4004;42.624;23.386;2024-03-07T13:19:16;3.17;;;2.87;;
7917;SDS011;4004;42.624;23.386;2024-03-07T13:21:46;5.83;;;2.70;;
7917;SDS011;4004;42.624;23.386;2024-03-07T13:24:13;3.40;;;2.80;;
7917;SDS011;4004;42.624;23.386;2024-03-07T13:26:40;7.40;;;2.67;;
7917;SDS011;4004;42.624;23.386;2024-03-07T13:29:09;4.80;;;2.53;;
7917;SDS011;4004;42.624;23.386;2024-03-07T13:31:37;8.23;;;2.93;;
7917;SDS011;4004;42.624;23.386;2024-03-07T13:34:07;2.37;;;2.00;;
7917;SDS011;4004;42.624;23.386;2024-03-07T13:36:39;5.30;;;2.30;;
7917;SDS011;4004;42.624;23.386;2024-03-07T13:39:07;34.17;;;4.70;;
7917;SDS011;4004;42.624;23.386;2024-03-07T13:41:36;8.10;;;2.70;;
7917;SDS011;4004;42.624;23.386;2024-03-07T13:44:03;6.37;;;2.67;;
7917;SDS011;4004;42.624;23.386;2024-03-07T13:46:31;3.13;;;2.20;;
7917;SDS011;4004;42.624;23.386;2024-03-07T13:48:58;4.23;;;2.57;;
7917;SDS011;4004;42.624;23.386;2024-03-07T13:51:32;2.10;;;1.90;;
7917;SDS011;4004;42.624;23.386;2024-03-07T13:54:02;3.97;;;2.50;;
7917;SDS011;4004;42.624;23.386;2024-03-07T13:56:52;9.20;;;3.03;;
7917;SDS011;4004;42.624;23.386;2024-03-07T13:59:41;6.67;;;2.73;;
7917;SDS011;4004;42.624;23.386;2024-03-07T14:02:48;14.17;;;3.93;;
7917;SDS011;4004;42.624;23.386;2024-03-07T14:05:42;7.17;;;3.43;;
7917;SDS011;4004;42.624;23.386;2024-03-07T14:08:44;12.73;;;3.23;;
7917;SDS011;4004;42.624;23.386;2024-03-07T14:14:38;16.40;;;3.30;;
7917;SDS011;4004;42.624;23.386;2024-03-07T14:17:44;12.50;;;3.03;;
7917;SDS011;4004;42.624;23.386;2024-03-07T14:20:46;9.33;;;3.93;;
7917;SDS011;4004;42.624;23.386;2024-03-07T14:23:31;9.17;;;3.40;;
7917;SDS011;4004;42.624;23.386;2024-03-07T14:29:09;13.97;;;4.27;;
7917;SDS011;4004;42.624;23.386;2024-03-07T14:31:46;17.40;;;4.47;;
7917;SDS011;4004;42.624;23.386;2024-03-07T14:34:18;14.87;;;5.27;;
7917;SDS011;4004;42.624;23.386;2024-03-07T14:37:04;10.53;;;3.77;;
7917;SDS011;4004;42.624;23.386;2024-03-07T14:39:38;11.63;;;4.23;;
7917;SDS011;4004;42.624;23.386;2024-03-07T14:42:05;6.33;;;4.70;;
7917;SDS011;4004;42.624;23.386;2024-03-07T14:44:35;10.53;;;5.30;;
7917;SDS011;4004;42.624;23.386;2024-03-07T14:47:06;8.03;;;5.20;;
7917;SDS011;4004;42.624;23.386;2024-03-07T14:49:36;10.67;;;5.17;;
7917;SDS011;4004;42.624;23.386;2024-03-07T14:52:05;11.37;;;5.50;;
7917;SDS011;4004;42.624;23.386;2024-03-07T14:54:36;10.53;;;5.37;;
7917;SDS011;4004;42.624;23.386;2024-03-07T14:57:03;6.00;;;5.07;;
7917;SDS011;4004;42.624;23.386;2024-03-07T14:59:31;6.73;;;5.13;;
7917;SDS011;4004;42.624;23.386;2024-03-07T15:01:58;8.17;;;5.30;;
7917;SDS011;4004;42.624;23.386;2024-03-07T15:04:29;8.20;;;6.13;;
7917;SDS011;4004;42.624;23.386;2024-03-07T15:06:58;7.37;;;6.60;;
7917;SDS011;4004;42.624;23.386;2024-03-07T15:09:27;10.93;;;6.67;;
7917;SDS011;4004;42.624;23.386;2024-03-07T15:11:57;11.23;;;7.73;;
7917;SDS011;4004;42.624;23.386;2024-03-07T15:14:24;10.57;;;8.47;;
7917;SDS011;4004;42.624;23.386;2024-03-07T15:16:51;8.37;;;7.47;;